createdAt,value
2018-05-15T00:00:45.014Z,6.00
2018-05-15T00:01:44.967Z,5.70
2018-05-15T00:02:44.996Z,5.60
2018-05-15T00:03:45.025Z,6.10
2018-05-15T00:04:45.056Z,5.90
2018-05-15T00:05:45.078Z,6.80
2018-05-15T00:06:45.106Z,7.00
2018-05-15T00:07:45.138Z,6.20
2018-05-15T00:08:45.166Z,6.10
2018-05-15T00:09:45.187Z,6.30
2018-05-15T00:10:45.224Z,6.70
2018-05-15T00:11:45.251Z,6.70
2018-05-15T00:12:45.277Z,6.90
2018-05-15T00:13:45.300Z,6.50
2018-05-15T00:14:45.326Z,6.50
2018-05-15T00:15:45.356Z,7.00
2018-05-15T00:16:45.381Z,10.30
2018-05-15T00:17:45.409Z,7.60
2018-05-15T00:18:45.442Z,13.40
2018-05-15T00:19:45.465Z,11.50
2018-05-15T00:20:45.559Z,20.40
2018-05-15T00:21:45.524Z,17.60
2018-05-15T00:22:45.546Z,10.90
2018-05-15T00:23:45.577Z,12.00
2018-05-15T00:24:45.602Z,10.80
2018-05-15T00:25:45.631Z,15.10
2018-05-15T00:26:45.657Z,13.70
2018-05-15T00:27:45.683Z,14.00
2018-05-15T00:28:45.716Z,8.80
2018-05-15T00:29:45.736Z,7.40
2018-05-15T00:30:45.766Z,7.10
2018-05-15T00:31:45.800Z,7.10
2018-05-15T00:32:45.820Z,7.00
2018-05-15T00:33:45.854Z,7.50
2018-05-15T00:34:45.876Z,8.70
2018-05-15T00:35:45.911Z,8.10
2018-05-15T00:36:45.931Z,7.20
2018-05-15T00:37:45.956Z,7.40
2018-05-15T00:38:45.986Z,7.40
2018-05-15T00:39:46.023Z,7.70
2018-05-15T00:40:46.046Z,7.70
2018-05-15T00:41:46.077Z,7.70
2018-05-15T00:42:46.101Z,7.10
2018-05-15T00:43:46.125Z,7.90
2018-05-15T00:44:46.154Z,8.00
2018-05-15T00:45:46.184Z,7.80
2018-05-15T00:46:46.211Z,7.60
2018-05-15T00:47:46.235Z,7.80
2018-05-15T00:48:46.264Z,7.70
2018-05-15T00:49:46.288Z,8.20
2018-05-15T00:50:46.316Z,7.90
2018-05-15T00:51:46.353Z,7.60
2018-05-15T00:52:46.373Z,8.60
2018-05-15T00:53:46.398Z,8.60
2018-05-15T00:54:46.427Z,7.90
2018-05-15T00:55:46.454Z,7.80
2018-05-15T00:56:46.488Z,8.00
2018-05-15T00:57:46.505Z,7.90
2018-05-15T00:58:46.534Z,7.80
2018-05-15T00:59:46.559Z,11.80
2018-05-15T01:00:46.601Z,9.60
2018-05-15T01:01:46.614Z,8.40
2018-05-15T01:02:46.644Z,8.60
2018-05-15T01:03:46.669Z,9.60
2018-05-15T01:04:46.699Z,9.00
2018-05-15T01:05:46.726Z,9.10
2018-05-15T01:06:46.764Z,10.10
2018-05-15T01:07:46.783Z,10.20
2018-05-15T01:08:46.805Z,9.80
2018-05-15T01:09:46.836Z,11.80
2018-05-15T01:10:46.864Z,9.90
2018-05-15T01:11:46.890Z,11.50
2018-05-15T01:12:46.919Z,8.50
2018-05-15T01:13:46.945Z,8.70
2018-05-15T01:14:46.969Z,12.20
2018-05-15T01:15:46.997Z,9.10
2018-05-15T01:16:47.039Z,8.20
2018-05-15T01:17:47.049Z,8.20
2018-05-15T01:18:47.082Z,8.20
2018-05-15T01:19:47.113Z,8.20
2018-05-15T01:20:47.133Z,10.90
2018-05-15T01:21:47.159Z,10.30
2018-05-15T01:22:47.193Z,9.90
2018-05-15T01:23:47.213Z,10.20
2018-05-15T01:24:47.246Z,9.80
2018-05-15T01:25:47.270Z,9.40
2018-05-15T01:26:47.310Z,10.60
2018-05-15T01:27:47.324Z,9.00
2018-05-15T01:28:47.358Z,8.40
2018-05-15T01:29:47.378Z,8.50
2018-05-15T01:30:47.403Z,9.60
2018-05-15T01:31:47.438Z,8.70
2018-05-15T01:32:47.459Z,10.10
2018-05-15T01:33:47.488Z,9.80
2018-05-15T01:34:47.515Z,14.90
2018-05-15T01:35:47.539Z,16.20
2018-05-15T01:36:47.570Z,12.10
2018-05-15T01:37:47.593Z,11.50
2018-05-15T01:38:47.628Z,10.60
2018-05-15T01:39:47.647Z,9.50
2018-05-15T01:40:47.685Z,9.20
2018-05-15T01:41:47.708Z,8.80
2018-05-15T01:42:47.728Z,8.40
2018-05-15T01:43:47.765Z,8.60
2018-05-15T01:44:47.793Z,8.80
2018-05-15T01:45:47.811Z,9.00
2018-05-15T01:46:47.838Z,8.70
2018-05-15T01:47:47.868Z,8.50
2018-05-15T01:48:47.892Z,8.40
2018-05-15T01:49:47.918Z,9.00
2018-05-15T01:50:47.948Z,8.50
2018-05-15T01:51:47.977Z,8.90
2018-05-15T01:52:48.002Z,10.80
2018-05-15T01:53:48.025Z,10.20
2018-05-15T01:54:48.057Z,9.50
2018-05-15T01:55:48.078Z,9.40
2018-05-15T01:56:48.108Z,9.10
2018-05-15T01:57:48.133Z,8.60
2018-05-15T01:58:48.161Z,9.00
2018-05-15T01:59:48.194Z,8.60
2018-05-15T02:00:48.216Z,8.70
2018-05-15T02:01:48.245Z,9.50
2018-05-15T02:02:48.266Z,9.10
2018-05-15T02:03:48.301Z,9.00
2018-05-15T02:04:48.321Z,8.40
2018-05-15T02:05:48.349Z,8.90
2018-05-15T02:06:48.378Z,8.70
2018-05-15T02:07:48.402Z,8.90
2018-05-15T02:08:48.432Z,8.70
2018-05-15T02:09:48.457Z,8.80
2018-05-15T02:10:48.492Z,8.90
2018-05-15T02:11:48.518Z,9.00
2018-05-15T02:12:48.540Z,8.40
2018-05-15T02:13:48.566Z,9.00
2018-05-15T02:14:48.595Z,9.20
2018-05-15T02:15:48.621Z,9.20
2018-05-15T02:16:48.647Z,9.00
2018-05-15T02:17:48.680Z,9.10
2018-05-15T02:18:48.703Z,8.90
2018-05-15T02:19:48.727Z,9.70
2018-05-15T02:20:48.756Z,9.00
2018-05-15T02:21:48.785Z,9.60
2018-05-15T02:22:48.813Z,9.30
2018-05-15T02:23:48.836Z,8.90
2018-05-15T02:24:48.864Z,9.40
2018-05-15T02:25:48.886Z,9.50
2018-05-15T02:26:48.917Z,9.30
2018-05-15T02:27:48.947Z,8.90
2018-05-15T02:28:48.969Z,9.10
2018-05-15T02:29:48.998Z,9.20
2018-05-15T02:30:49.032Z,9.00
2018-05-15T02:31:49.049Z,9.00
2018-05-15T02:32:49.081Z,9.40
2018-05-15T02:33:49.103Z,9.30
2018-05-15T02:34:49.130Z,9.40
2018-05-15T02:35:49.161Z,9.90
2018-05-15T02:36:49.182Z,9.40
2018-05-15T02:37:49.210Z,9.60
2018-05-15T02:38:49.244Z,9.10
2018-05-15T02:39:49.263Z,9.10
2018-05-15T02:40:49.290Z,9.00
2018-05-15T02:41:49.329Z,9.60
2018-05-15T02:42:49.346Z,9.50
2018-05-15T02:43:49.369Z,9.80
2018-05-15T02:44:49.404Z,9.80
2018-05-15T02:45:49.426Z,9.60
2018-05-15T02:46:49.453Z,9.50
2018-05-15T02:47:49.482Z,9.40
2018-05-15T02:48:49.509Z,12.40
2018-05-15T02:49:49.531Z,9.60
2018-05-15T02:50:49.559Z,9.80
2018-05-15T02:51:49.586Z,9.70
2018-05-15T02:52:49.617Z,9.80
2018-05-15T02:53:49.645Z,9.80
2018-05-15T02:54:49.665Z,10.00
2018-05-15T02:55:49.734Z,10.20
2018-05-15T02:56:49.720Z,10.10
2018-05-15T02:57:49.749Z,10.50
2018-05-15T02:58:49.774Z,10.00
2018-05-15T02:59:49.800Z,9.80
2018-05-15T03:00:49.825Z,10.10
2018-05-15T03:01:49.853Z,10.20
2018-05-15T03:02:49.880Z,9.90
2018-05-15T03:03:49.909Z,10.40
2018-05-15T03:04:49.938Z,10.00
2018-05-15T03:05:49.961Z,10.00
2018-05-15T03:06:49.991Z,10.80
2018-05-15T03:07:50.009Z,10.20
2018-05-15T03:08:50.046Z,9.90
2018-05-15T03:09:50.069Z,10.50
2018-05-15T03:10:50.103Z,11.00
2018-05-15T03:11:50.126Z,10.80
2018-05-15T03:12:50.145Z,10.70
2018-05-15T03:13:50.170Z,10.20
2018-05-15T03:14:50.195Z,10.60
2018-05-15T03:15:50.224Z,10.10
2018-05-15T03:16:50.265Z,11.30
2018-05-15T03:17:50.281Z,11.00
2018-05-15T03:18:50.308Z,10.90
2018-05-15T03:19:50.329Z,11.00
2018-05-15T03:20:50.354Z,10.80
2018-05-15T03:21:50.383Z,10.70
2018-05-15T03:22:50.409Z,11.00
2018-05-15T03:23:50.440Z,11.40
2018-05-15T03:24:50.463Z,11.20
2018-05-15T03:25:50.493Z,11.20
2018-05-15T03:26:50.519Z,11.40
2018-05-15T03:27:50.547Z,11.30
2018-05-15T03:28:50.568Z,11.40
2018-05-15T03:29:50.594Z,11.80
2018-05-15T03:30:50.628Z,11.60
2018-05-15T03:31:50.656Z,11.80
2018-05-15T03:32:50.677Z,11.20
2018-05-15T03:33:50.702Z,11.30
2018-05-15T03:34:50.735Z,11.50
2018-05-15T03:35:50.762Z,12.00
2018-05-15T03:36:50.785Z,11.60
2018-05-15T03:37:50.803Z,11.70
2018-05-15T03:38:50.924Z,11.50
2018-05-15T03:39:50.859Z,11.80
2018-05-15T03:40:50.887Z,12.20
2018-05-15T03:41:50.916Z,11.40
2018-05-15T03:42:50.938Z,11.60
2018-05-15T03:43:50.963Z,12.20
2018-05-15T03:44:50.996Z,11.50
2018-05-15T03:45:51.017Z,12.00
2018-05-15T03:46:51.054Z,12.10
2018-05-15T03:47:51.077Z,11.80
2018-05-15T03:48:51.097Z,12.20
2018-05-15T03:49:51.124Z,11.70
2018-05-15T03:50:51.150Z,11.60
2018-05-15T03:51:51.176Z,12.00
2018-05-15T03:52:51.203Z,11.40
2018-05-15T03:53:51.226Z,11.90
2018-05-15T03:54:51.257Z,12.00
2018-05-15T03:55:51.279Z,11.80
2018-05-15T03:56:51.306Z,11.70
2018-05-15T03:57:51.335Z,11.60
2018-05-15T03:58:51.361Z,12.20
2018-05-15T03:59:51.387Z,12.00
2018-05-15T04:00:51.416Z,12.00
2018-05-15T04:01:51.444Z,12.10
2018-05-15T04:02:51.471Z,11.60
2018-05-15T04:03:51.498Z,12.20
2018-05-15T04:04:51.523Z,12.70
2018-05-15T04:05:51.547Z,12.40
2018-05-15T04:06:51.575Z,12.00
2018-05-15T04:07:51.602Z,12.00
2018-05-15T04:08:51.625Z,11.50
2018-05-15T04:09:51.651Z,12.10
2018-05-15T04:10:51.718Z,12.10
2018-05-15T04:11:51.706Z,12.00
2018-05-15T04:12:51.736Z,12.00
2018-05-15T04:13:51.756Z,12.30
2018-05-15T04:14:51.786Z,11.80
2018-05-15T04:15:51.811Z,11.30
2018-05-15T04:16:51.846Z,12.20
2018-05-15T04:17:51.866Z,11.60
2018-05-15T04:18:51.893Z,12.60
2018-05-15T04:19:51.920Z,12.70
2018-05-15T04:20:51.943Z,13.60
2018-05-15T04:21:51.972Z,13.10
2018-05-15T04:22:51.996Z,11.80
2018-05-15T04:23:52.022Z,12.50
2018-05-15T04:24:52.058Z,12.40
2018-05-15T04:25:52.081Z,12.00
2018-05-15T04:26:52.102Z,13.10
2018-05-15T04:27:52.136Z,14.20
2018-05-15T04:28:52.156Z,13.30
2018-05-15T04:29:52.181Z,13.40
2018-05-15T04:30:52.205Z,13.50
2018-05-15T04:31:52.236Z,14.50
2018-05-15T04:32:52.267Z,14.20
2018-05-15T04:33:52.289Z,13.70
2018-05-15T04:34:52.316Z,13.40
2018-05-15T04:35:52.341Z,12.60
2018-05-15T04:36:52.370Z,13.90
2018-05-15T04:37:52.399Z,13.70
2018-05-15T04:38:52.424Z,13.70
2018-05-15T04:39:52.450Z,13.90
2018-05-15T04:40:52.479Z,13.60
2018-05-15T04:41:52.503Z,13.90
2018-05-15T04:42:52.525Z,13.90
2018-05-15T04:43:52.882Z,13.40
2018-05-15T04:44:52.581Z,14.80
2018-05-15T04:45:52.605Z,13.70
2018-05-15T04:46:52.634Z,14.30
2018-05-15T04:47:52.658Z,14.70
2018-05-15T04:48:52.686Z,14.50
2018-05-15T04:49:52.708Z,13.90
2018-05-15T04:50:52.735Z,15.30
2018-05-15T04:51:52.761Z,14.10
2018-05-15T04:52:52.785Z,14.40
2018-05-15T04:53:52.814Z,14.20
2018-05-15T04:54:52.840Z,14.30
2018-05-15T04:55:52.870Z,13.40
2018-05-15T04:56:52.895Z,13.70
2018-05-15T04:57:52.920Z,14.10
2018-05-15T04:58:52.944Z,13.70
2018-05-15T04:59:52.977Z,14.00
2018-05-15T05:00:53.007Z,13.90
2018-05-15T05:01:53.070Z,13.30
2018-05-15T05:02:53.059Z,14.20
2018-05-15T05:03:53.084Z,13.50
2018-05-15T05:04:53.108Z,14.40
2018-05-15T05:05:53.129Z,14.40
2018-05-15T05:06:53.155Z,14.50
2018-05-15T05:07:53.187Z,14.90
2018-05-15T05:08:53.209Z,14.30
2018-05-15T05:09:53.247Z,14.20
2018-05-15T05:10:53.264Z,14.40
2018-05-15T05:11:53.320Z,14.80
2018-05-15T05:12:53.315Z,14.10
2018-05-15T05:13:53.347Z,14.30
2018-05-15T05:14:53.371Z,13.50
2018-05-15T05:15:53.396Z,13.20
2018-05-15T05:16:53.423Z,14.10
2018-05-15T05:17:53.449Z,14.70
2018-05-15T05:18:53.474Z,14.70
2018-05-15T05:19:53.507Z,13.70
2018-05-15T05:20:53.529Z,14.50
2018-05-15T05:21:53.558Z,13.50
2018-05-15T05:22:53.583Z,14.20
2018-05-15T05:23:53.610Z,14.40
2018-05-15T05:24:53.642Z,13.70
2018-05-15T05:25:53.664Z,14.10
2018-05-15T05:26:53.692Z,14.00
2018-05-15T05:27:53.717Z,14.60
2018-05-15T05:28:53.742Z,14.50
2018-05-15T05:29:53.769Z,14.00
2018-05-15T05:30:53.797Z,13.80
2018-05-15T05:31:53.827Z,14.50
2018-05-15T05:32:53.853Z,14.30
2018-05-15T05:33:53.879Z,14.10
2018-05-15T05:34:53.906Z,14.00
2018-05-15T05:35:53.929Z,14.10
2018-05-15T05:36:53.956Z,13.60
2018-05-15T05:37:53.989Z,15.10
2018-05-15T05:38:54.010Z,13.80
2018-05-15T05:39:54.041Z,14.30
2018-05-15T05:40:54.068Z,14.20
2018-05-15T05:41:54.092Z,14.20
2018-05-15T05:42:54.113Z,13.20
2018-05-15T05:43:54.143Z,13.20
2018-05-15T05:44:54.171Z,13.60
2018-05-15T05:45:54.198Z,13.50
2018-05-15T05:46:54.224Z,13.60
2018-05-15T05:47:54.247Z,13.30
2018-05-15T05:48:54.277Z,13.40
2018-05-15T05:49:54.306Z,13.70
2018-05-15T05:50:54.330Z,13.50
2018-05-15T05:51:54.451Z,13.30
2018-05-15T05:52:54.382Z,13.10
2018-05-15T05:53:54.412Z,13.60
2018-05-15T05:54:54.438Z,13.80
2018-05-15T05:55:54.498Z,13.50
2018-05-15T05:56:54.492Z,12.60
2018-05-15T05:57:54.519Z,12.60
2018-05-15T05:58:54.552Z,12.10
2018-05-15T05:59:54.571Z,13.40
2018-05-15T06:00:54.607Z,12.30
2018-05-15T06:01:54.633Z,12.30
2018-05-15T06:02:54.664Z,11.60
2018-05-15T06:03:54.676Z,12.00
2018-05-15T06:04:54.710Z,12.10
2018-05-15T06:05:54.731Z,12.40
2018-05-15T06:06:54.765Z,12.50
2018-05-15T06:07:54.787Z,12.80
2018-05-15T06:08:54.821Z,12.50
2018-05-15T06:09:54.841Z,12.50
2018-05-15T06:10:54.871Z,12.60
2018-05-15T06:11:54.904Z,12.50
2018-05-15T06:12:54.925Z,12.10
2018-05-15T06:13:54.956Z,12.30
2018-05-15T06:14:54.977Z,11.90
2018-05-15T06:15:55.008Z,12.20
2018-05-15T06:16:55.033Z,12.10
2018-05-15T06:17:55.062Z,13.10
2018-05-15T06:18:55.090Z,12.70
2018-05-15T06:19:55.119Z,13.00
2018-05-15T06:20:55.164Z,12.80
2018-05-15T06:21:55.163Z,12.40
2018-05-15T06:22:55.194Z,11.90
2018-05-15T06:23:55.224Z,12.20
2018-05-15T06:24:55.250Z,12.20
2018-05-15T06:25:55.277Z,12.40
2018-05-15T06:26:55.355Z,12.90
2018-05-15T06:27:55.326Z,12.80
2018-05-15T06:28:55.357Z,11.80
2018-05-15T06:29:55.386Z,12.00
2018-05-15T06:30:55.411Z,11.60
2018-05-15T06:31:55.437Z,11.00
2018-05-15T06:32:55.492Z,12.00
2018-05-15T06:33:55.577Z,10.70
2018-05-15T06:34:55.517Z,10.10
2018-05-15T06:35:55.546Z,11.00
2018-05-15T06:36:55.570Z,11.30
2018-05-15T06:37:55.599Z,10.80
2018-05-15T06:38:55.631Z,10.50
2018-05-15T06:39:55.656Z,10.70
2018-05-15T06:40:55.682Z,12.30
2018-05-15T06:41:55.708Z,11.40
2018-05-15T06:42:55.741Z,10.60
2018-05-15T06:43:55.768Z,11.20
2018-05-15T06:44:55.790Z,10.90
2018-05-15T06:45:55.819Z,10.60
2018-05-15T06:46:55.846Z,10.50
2018-05-15T06:47:55.879Z,10.50
2018-05-15T06:48:55.900Z,10.90
2018-05-15T06:49:55.933Z,10.40
2018-05-15T06:50:55.965Z,10.80
2018-05-15T06:51:55.985Z,10.20
2018-05-15T06:52:56.011Z,10.50
2018-05-15T06:53:56.038Z,10.90
2018-05-15T06:54:56.066Z,9.90
2018-05-15T06:55:56.094Z,10.10
2018-05-15T06:56:56.120Z,9.70
2018-05-15T06:57:56.156Z,9.50
2018-05-15T06:58:56.179Z,10.10
2018-05-15T06:59:56.204Z,10.30
2018-05-15T07:00:56.246Z,9.60
2018-05-15T07:01:56.355Z,9.80
2018-05-15T07:02:56.286Z,9.70
2018-05-15T07:03:56.313Z,9.50
2018-05-15T07:04:56.341Z,9.80
2018-05-15T07:05:56.367Z,9.50
2018-05-15T07:06:56.402Z,9.10
2018-05-15T07:07:56.430Z,9.70
2018-05-15T07:08:56.450Z,9.30
2018-05-15T07:09:56.481Z,8.60
2018-05-15T07:10:56.510Z,8.50
2018-05-15T07:11:56.541Z,8.40
2018-05-15T07:12:56.564Z,8.80
2018-05-15T07:13:56.598Z,8.60
2018-05-15T07:14:56.616Z,8.70
2018-05-15T07:15:56.651Z,7.90
2018-05-15T07:16:56.674Z,8.00
2018-05-15T07:17:56.699Z,7.90
2018-05-15T07:18:56.725Z,8.60
2018-05-15T07:19:56.760Z,8.10
2018-05-15T07:20:56.783Z,8.50
2018-05-15T07:21:56.815Z,9.90
2018-05-15T07:22:56.839Z,9.10
2018-05-15T07:23:56.869Z,9.70
2018-05-15T07:24:56.896Z,9.50
2018-05-15T07:25:56.924Z,9.90
2018-05-15T07:26:56.953Z,9.80
2018-05-15T07:27:56.983Z,10.40
2018-05-15T07:28:57.007Z,9.50
2018-05-15T07:29:57.037Z,9.40
2018-05-15T07:30:57.063Z,10.00
2018-05-15T07:31:57.107Z,9.70
2018-05-15T07:32:57.123Z,9.20
2018-05-15T07:33:57.148Z,10.20
2018-05-15T07:34:57.173Z,9.30
2018-05-15T07:35:57.200Z,9.70
2018-05-15T07:36:57.228Z,10.00
2018-05-15T07:37:57.260Z,9.70
2018-05-15T07:38:57.289Z,10.20
2018-05-15T07:39:57.318Z,9.50
2018-05-15T07:40:57.343Z,10.00
2018-05-15T07:41:57.370Z,9.90
2018-05-15T07:42:57.396Z,10.10
2018-05-15T07:43:57.428Z,9.90
2018-05-15T07:44:57.453Z,10.50
2018-05-15T07:45:57.478Z,9.20
2018-05-15T07:46:57.513Z,9.20
2018-05-15T07:47:57.540Z,13.50
2018-05-15T07:48:57.570Z,10.40
2018-05-15T07:49:57.598Z,13.30
2018-05-15T07:50:57.619Z,10.60
2018-05-15T07:51:57.651Z,13.30
2018-05-15T07:52:57.682Z,26.90
2018-05-15T07:53:57.705Z,11.50
2018-05-15T07:54:57.738Z,8.50
2018-05-15T07:55:57.762Z,8.30
2018-05-15T07:56:57.797Z,8.10
2018-05-15T07:57:57.816Z,7.50
2018-05-15T07:58:57.848Z,10.80
2018-05-15T07:59:57.885Z,9.30
2018-05-15T08:00:57.908Z,10.40
2018-05-15T08:01:57.932Z,10.60
2018-05-15T08:02:57.958Z,8.60
2018-05-15T08:03:57.989Z,6.90
2018-05-15T08:04:58.022Z,5.80
2018-05-15T08:05:58.044Z,8.30
2018-05-15T08:06:58.081Z,5.90
2018-05-15T08:07:58.094Z,6.10
2018-05-15T08:08:58.127Z,5.50
2018-05-15T08:09:58.150Z,5.30
2018-05-15T08:10:58.179Z,5.50
2018-05-15T08:11:58.240Z,5.60
2018-05-15T08:12:58.243Z,5.10
2018-05-15T08:13:58.268Z,5.70
2018-05-15T08:14:58.305Z,5.90
2018-05-15T08:15:58.326Z,6.20
2018-05-15T08:16:58.363Z,5.10
2018-05-15T08:17:58.377Z,5.40
2018-05-15T08:18:58.412Z,5.20
2018-05-15T08:19:58.451Z,5.10
2018-05-15T08:20:58.467Z,4.90
2018-05-15T08:21:58.494Z,4.60
2018-05-15T08:22:58.527Z,5.30
2018-05-15T08:23:58.555Z,5.70
2018-05-15T08:24:58.580Z,5.60
2018-05-15T08:25:58.611Z,4.70
2018-05-15T08:26:58.644Z,4.60
2018-05-15T08:27:58.666Z,5.00
2018-05-15T08:28:58.705Z,4.60
2018-05-15T08:29:58.723Z,4.70
2018-05-15T08:30:58.813Z,4.00
2018-05-15T08:31:58.778Z,4.20
2018-05-15T08:32:58.810Z,4.20
2018-05-15T08:33:58.833Z,3.80
2018-05-15T08:34:58.874Z,4.50
2018-05-15T08:35:58.896Z,4.00
2018-05-15T08:36:58.922Z,4.10
2018-05-15T08:37:58.957Z,4.20
2018-05-15T08:38:58.976Z,4.20
2018-05-15T08:39:59.008Z,4.10
2018-05-15T08:40:59.036Z,4.50
2018-05-15T08:41:59.065Z,4.50
2018-05-15T08:42:59.091Z,4.20
2018-05-15T08:43:59.125Z,4.20
2018-05-15T08:44:59.150Z,3.70
2018-05-15T08:45:59.181Z,3.70
2018-05-15T08:46:59.205Z,3.40
2018-05-15T08:47:59.234Z,3.60
2018-05-15T08:48:59.269Z,3.30
2018-05-15T08:49:59.294Z,4.00
2018-05-15T08:50:59.316Z,4.10
2018-05-15T08:51:59.345Z,4.20
2018-05-15T08:52:59.375Z,4.00
2018-05-15T08:53:59.407Z,4.50
2018-05-15T08:54:59.436Z,4.30
2018-05-15T08:55:59.538Z,4.40
2018-05-15T08:56:59.491Z,4.50
2018-05-15T08:57:59.520Z,4.80
2018-05-15T08:58:59.552Z,7.80
2018-05-15T08:59:59.574Z,4.80
2018-05-15T09:00:59.621Z,4.40
2018-05-15T09:01:59.646Z,3.80
2018-05-15T09:02:59.664Z,4.00
2018-05-15T09:03:59.700Z,3.90
2018-05-15T09:04:59.721Z,4.10
2018-05-15T09:05:59.759Z,4.00
2018-05-15T09:06:59.869Z,3.50
2018-05-15T09:07:59.808Z,3.70
2018-05-15T09:08:59.843Z,3.70
2018-05-15T09:09:59.860Z,3.40
2018-05-15T09:10:59.891Z,4.10
2018-05-15T09:11:59.918Z,3.70
2018-05-15T09:12:59.952Z,4.60
2018-05-15T09:13:59.977Z,4.50
2018-05-15T09:15:00.012Z,5.80
2018-05-15T09:16:00.043Z,5.60
2018-05-15T09:17:00.069Z,11.60
2018-05-15T09:18:00.097Z,5.50
2018-05-15T09:19:00.124Z,4.10
2018-05-15T09:20:00.152Z,3.60
2018-05-15T09:21:00.179Z,3.30
2018-05-15T09:22:00.214Z,3.50
2018-05-15T09:23:00.341Z,3.60
2018-05-15T09:24:00.274Z,3.40
2018-05-15T09:25:00.303Z,3.50
2018-05-15T09:26:00.327Z,3.50
2018-05-15T09:27:00.369Z,2.90
2018-05-15T09:28:00.384Z,3.30
2018-05-15T09:29:00.416Z,3.30
2018-05-15T09:30:00.445Z,4.00
2018-05-15T09:31:00.471Z,3.80
2018-05-15T09:32:00.502Z,3.20
2018-05-15T09:33:00.529Z,4.30
2018-05-15T09:34:00.563Z,3.10
2018-05-15T09:35:00.588Z,3.20
2018-05-15T09:36:00.619Z,3.20
2018-05-15T09:37:00.649Z,3.60
2018-05-15T09:38:00.676Z,3.30
2018-05-15T09:39:00.705Z,3.30
2018-05-15T09:40:00.733Z,3.20
2018-05-15T09:41:00.759Z,3.40
2018-05-15T09:42:00.792Z,3.40
2018-05-15T09:43:00.826Z,3.30
2018-05-15T09:44:00.851Z,3.60
2018-05-15T09:45:00.878Z,3.30
2018-05-15T09:46:00.910Z,3.30
2018-05-15T09:47:00.988Z,3.30
2018-05-15T09:48:00.966Z,3.40
2018-05-15T09:49:00.993Z,3.50
2018-05-15T09:50:01.022Z,3.60
2018-05-15T09:51:01.059Z,3.40
2018-05-15T09:52:01.083Z,3.30
2018-05-15T09:53:01.113Z,3.20
2018-05-15T09:54:01.144Z,3.40
2018-05-15T09:55:01.175Z,3.40
2018-05-15T09:56:01.202Z,3.10
2018-05-15T09:57:01.235Z,3.10
2018-05-15T09:58:01.258Z,3.10
2018-05-15T09:59:01.291Z,3.40
2018-05-15T10:00:01.319Z,3.60
2018-05-15T10:01:01.347Z,3.20
2018-05-15T10:02:01.372Z,3.40
2018-05-15T10:03:01.403Z,3.60
2018-05-15T10:04:01.439Z,3.80
2018-05-15T10:05:01.464Z,3.10
2018-05-15T10:06:01.502Z,3.20
2018-05-15T10:07:01.530Z,3.20
2018-05-15T10:08:01.611Z,3.30
2018-05-15T10:09:01.582Z,4.00
2018-05-15T10:10:01.617Z,3.50
2018-05-15T10:11:01.642Z,3.60
2018-05-15T10:12:01.683Z,3.70
2018-05-15T10:13:01.715Z,3.20
2018-05-15T10:14:01.730Z,3.90
2018-05-15T10:15:01.760Z,5.00
2018-05-15T10:16:01.788Z,3.50
2018-05-15T10:17:01.814Z,4.60
2018-05-15T10:18:01.849Z,3.60
2018-05-15T10:19:01.882Z,4.40
2018-05-15T10:20:01.936Z,3.20
2018-05-15T10:21:01.936Z,3.60
2018-05-15T10:22:01.967Z,3.10
2018-05-15T10:23:01.995Z,3.40
2018-05-15T10:24:02.029Z,3.50
2018-05-15T10:25:02.055Z,3.40
2018-05-15T10:26:02.081Z,3.30
2018-05-15T10:27:02.112Z,4.00
2018-05-15T10:28:02.142Z,3.30
2018-05-15T10:29:02.171Z,3.70
2018-05-15T10:30:02.280Z,3.40
2018-05-15T10:31:02.231Z,3.10
2018-05-15T10:32:02.267Z,3.60
2018-05-15T10:33:02.290Z,3.40
2018-05-15T10:34:02.318Z,3.20
2018-05-15T10:35:02.355Z,3.60
2018-05-15T10:36:02.381Z,3.60
2018-05-15T10:37:02.413Z,3.40
2018-05-15T10:38:02.441Z,3.60
2018-05-15T10:39:02.471Z,3.70
2018-05-15T10:40:02.498Z,3.40
2018-05-15T10:41:02.531Z,3.50
2018-05-15T10:42:02.556Z,3.70
2018-05-15T10:43:02.586Z,3.40
2018-05-15T10:44:02.743Z,4.90
2018-05-15T10:45:02.655Z,3.50
2018-05-15T10:46:02.673Z,3.50
2018-05-15T10:47:02.706Z,3.60
2018-05-15T10:48:02.736Z,3.00
2018-05-15T10:49:02.769Z,3.50
2018-05-15T10:50:02.800Z,3.50
2018-05-15T10:51:02.826Z,3.30
2018-05-15T10:52:02.860Z,3.40
2018-05-15T10:53:02.890Z,3.90
2018-05-15T10:54:02.929Z,3.40
2018-05-15T10:55:02.951Z,3.30
2018-05-15T10:56:02.982Z,3.20
2018-05-15T10:57:03.011Z,7.70
2018-05-15T10:58:03.043Z,4.10
2018-05-15T10:59:03.070Z,3.50
2018-05-15T11:00:03.104Z,3.10
2018-05-15T11:01:03.136Z,3.30
2018-05-15T11:02:03.167Z,3.30
2018-05-15T11:03:03.194Z,3.20
2018-05-15T11:04:03.235Z,3.30
2018-05-15T11:05:03.263Z,3.30
2018-05-15T11:06:03.296Z,2.70
2018-05-15T11:07:03.319Z,3.10
2018-05-15T11:08:03.357Z,3.00
2018-05-15T11:09:03.386Z,3.40
2018-05-15T11:10:03.421Z,3.40
2018-05-15T11:11:03.450Z,3.00
2018-05-15T11:12:03.494Z,3.20
2018-05-15T11:13:03.520Z,3.00
2018-05-15T11:14:03.549Z,3.70
2018-05-15T11:15:03.588Z,3.00
2018-05-15T11:16:03.620Z,2.90
2018-05-15T11:17:03.654Z,2.90
2018-05-15T11:18:03.687Z,3.60
2018-05-15T11:19:03.720Z,2.90
2018-05-15T11:20:03.759Z,2.90
2018-05-15T11:21:03.788Z,2.80
2018-05-15T11:22:03.825Z,3.30
2018-05-15T11:23:03.867Z,3.30
2018-05-15T11:24:03.898Z,3.10
2018-05-15T11:25:03.931Z,2.80
2018-05-15T11:26:03.960Z,2.90
2018-05-15T11:27:03.993Z,3.20
2018-05-15T11:28:04.033Z,3.20
2018-05-15T11:29:04.069Z,4.20
2018-05-15T11:30:04.105Z,3.60
2018-05-15T11:31:04.140Z,3.00
2018-05-15T11:32:04.174Z,2.70
2018-05-15T11:33:04.209Z,3.00
2018-05-15T11:34:04.247Z,3.30
2018-05-15T11:35:04.284Z,3.40
2018-05-15T11:36:04.387Z,2.90
2018-05-15T11:37:04.357Z,3.00
2018-05-15T11:38:04.386Z,2.70
2018-05-15T11:39:04.421Z,2.80
2018-05-15T11:40:04.459Z,3.00
2018-05-15T11:41:04.498Z,3.40
2018-05-15T11:42:04.530Z,2.70
2018-05-15T11:43:04.565Z,2.70
2018-05-15T11:44:04.605Z,3.10
2018-05-15T11:45:04.640Z,3.10
2018-05-15T11:46:04.668Z,2.90
2018-05-15T11:47:04.712Z,3.10
2018-05-15T11:48:05.158Z,2.70
2018-05-15T11:49:05.713Z,2.80
2018-05-15T11:50:05.802Z,2.80
2018-05-15T11:51:06.116Z,3.40
2018-05-15T11:52:05.730Z,2.60
2018-05-15T11:53:05.954Z,2.90
2018-05-15T11:54:04.964Z,3.20
2018-05-15T11:55:05.006Z,2.90
2018-05-15T11:56:05.043Z,2.70
2018-05-15T11:57:05.078Z,2.80
2018-05-15T11:58:05.215Z,2.60
2018-05-15T11:59:05.162Z,2.70
2018-05-15T12:00:05.293Z,2.60
2018-05-15T12:01:05.227Z,2.90
2018-05-15T12:02:05.263Z,2.90
2018-05-15T12:03:05.384Z,2.60
2018-05-15T12:04:05.399Z,2.50
2018-05-15T12:05:05.381Z,2.60
2018-05-15T12:06:05.450Z,2.90
2018-05-15T12:07:05.457Z,2.50
2018-05-15T12:08:05.614Z,3.00
2018-05-15T12:09:05.541Z,3.10
2018-05-15T12:10:05.563Z,3.00
2018-05-15T12:11:05.607Z,2.80
2018-05-15T12:12:05.637Z,3.00
2018-05-15T12:13:05.676Z,2.80
2018-05-15T12:14:05.723Z,3.10
2018-05-15T12:15:05.765Z,3.30
2018-05-15T12:16:05.817Z,4.00
2018-05-15T12:17:05.825Z,3.20
2018-05-15T12:18:05.864Z,6.00
2018-05-15T12:19:05.900Z,3.30
2018-05-15T12:20:05.939Z,3.10
2018-05-15T12:21:06.028Z,3.40
2018-05-15T12:22:06.004Z,2.90
2018-05-15T12:23:06.044Z,3.00
2018-05-15T12:24:06.087Z,3.40
2018-05-15T12:25:06.111Z,2.80
2018-05-15T12:26:06.146Z,2.90
2018-05-15T12:27:06.191Z,2.70
2018-05-15T12:28:06.397Z,2.40
2018-05-15T12:29:06.252Z,3.40
2018-05-15T12:30:06.297Z,2.90
2018-05-15T12:31:06.328Z,2.60
2018-05-15T12:32:06.365Z,3.10
2018-05-15T12:33:06.399Z,2.80
2018-05-15T12:34:06.436Z,2.70
2018-05-15T12:35:06.479Z,2.80
2018-05-15T12:36:06.512Z,2.70
2018-05-15T12:37:06.558Z,2.60
2018-05-15T12:38:06.586Z,2.60
2018-05-15T12:39:06.630Z,2.70
2018-05-15T12:40:06.663Z,3.00
2018-05-15T12:41:06.701Z,2.90
2018-05-15T12:42:06.972Z,2.80
2018-05-15T12:43:06.778Z,2.60
2018-05-15T12:44:06.822Z,2.80
2018-05-15T12:45:06.852Z,2.70
2018-05-15T12:46:06.899Z,2.70
2018-05-15T12:47:06.932Z,2.70
2018-05-15T12:48:07.020Z,3.20
2018-05-15T12:49:07.012Z,2.90
2018-05-15T12:50:07.045Z,2.70
2018-05-15T12:51:07.094Z,2.70
2018-05-15T12:52:07.128Z,2.90
2018-05-15T12:53:07.169Z,2.60
2018-05-15T12:54:07.281Z,2.60
2018-05-15T12:55:07.245Z,2.70
2018-05-15T12:56:07.284Z,2.70
2018-05-15T12:57:07.320Z,3.10
2018-05-15T12:58:07.369Z,2.70
2018-05-15T12:59:07.406Z,2.60
2018-05-15T13:00:07.445Z,3.10
2018-05-15T13:01:07.484Z,2.50
2018-05-15T13:02:07.521Z,2.90
2018-05-15T13:03:07.555Z,3.50
2018-05-15T13:04:07.604Z,2.60
2018-05-15T13:05:07.639Z,2.90
2018-05-15T13:06:07.682Z,2.90
2018-05-15T13:07:07.723Z,2.60
2018-05-15T13:08:07.754Z,2.60
2018-05-15T13:09:07.790Z,3.00